Time;durP1;ratioP1;P1;durP2;ratioP2;P2;SDS_P1;SDS_P2;PMS_P1;PMS_P2;Temp;Humidity;BMP_temperature;BMP_pressure;BME280_temperature;BME280_humidity;BME280_pressure;Samples;Min_cycle;Max_cycle;Signal;HPM_P1;HPM_P2
2022/12/05 00:01:20;;;;;;;8.23;3.98;;;;;;;-6.45;64.37;101898.64;1757815;81;21788;-77
2022/12/05 00:03:48;;;;;;;7.30;4.15;;;;;;;-6.47;64.39;101890.03;1760408;81;21060;-75
2022/12/05 00:06:16;;;;;;;6.30;3.80;;;;;;;-6.49;64.48;101892.18;1761464;81;20982;-75
2022/12/05 00:08:44;;;;;;;11.05;4.70;;;;;;;-6.49;64.51;101899.94;1746929;81;21116;-79
2022/12/05 00:11:13;;;;;;;8.25;3.72;;;;;;;-6.49;64.49;101894.77;1761733;81;21064;-79
2022/12/05 00:13:40;;;;;;;10.18;4.05;;;;;;;-6.52;64.50;101893.91;1763288;81;21186;-76
2022/12/05 00:16:12;;;;;;;12.00;4.08;;;;;;;-6.56;64.57;101894.80;1741307;81;21037;-79
2022/12/05 00:18:38;;;;;;;8.03;3.83;;;;;;;-6.57;64.70;101891.80;1761709;81;21095;-75
2022/12/05 00:21:14;;;;;;;9.45;4.58;;;;;;;-6.54;64.66;101880.58;1762555;81;21052;-77
2022/12/05 00:23:40;;;;;;;10.08;4.17;;;;;;;-6.56;64.73;101888.78;1761926;81;21072;-74
2022/12/05 00:26:08;;;;;;;9.60;3.87;;;;;;;-6.60;64.69;101887.92;1759614;81;22665;-76
2022/12/05 00:28:36;;;;;;;11.68;5.60;;;;;;;-6.59;64.78;101892.21;1761943;81;21056;-76
2022/12/05 00:31:07;;;;;;;11.28;4.30;;;;;;;-6.62;64.89;101888.36;1761960;81;21077;-73
2022/12/05 00:33:33;;;;;;;8.75;3.92;;;;;;;-6.68;64.97;101887.10;1758353;81;21002;-77
2022/12/05 00:36:09;;;;;;;7.47;4.47;;;;;;;-6.70;65.09;101890.13;1755746;81;21072;-77
2022/12/05 00:38:36;;;;;;;10.53;4.20;;;;;;;-6.70;65.15;101887.55;1750884;81;21595;-77
2022/12/05 00:41:04;;;;;;;11.25;5.08;;;;;;;-6.70;65.23;101888.84;1760560;81;21248;-78
2022/12/05 00:43:31;;;;;;;8.25;4.45;;;;;;;-6.68;65.14;101887.10;1748356;81;21013;-77
2022/12/05 00:46:07;;;;;;;11.10;5.25;;;;;;;-6.73;65.26;101878.50;1760322;81;21481;-78
2022/12/05 00:48:33;;;;;;;11.00;5.12;;;;;;;-6.76;65.41;101880.67;1762093;81;21032;-79
2022/12/05 00:51:06;;;;;;;8.38;4.70;;;;;;;-6.80;65.49;101866.45;1759324;81;22112;-79
2022/12/05 00:53:33;;;;;;;7.55;4.05;;;;;;;-6.84;65.66;101853.11;1762069;81;21009;-77
2022/12/05 00:56:09;;;;;;;9.73;4.17;;;;;;;-6.84;65.85;101867.33;1763780;81;21006;-78
2022/12/05 00:58:36;;;;;;;10.18;4.75;;;;;;;-6.89;65.80;101863.92;1763595;81;21564;-77
2022/12/05 01:01:13;;;;;;;12.60;5.58;;;;;;;-6.90;65.97;101864.77;1761112;81;21017;-77
2022/12/05 01:03:41;;;;;;;9.23;4.80;;;;;;;-6.94;66.01;101863.47;1760404;81;21340;-76
2022/12/05 01:06:09;;;;;;;8.90;4.20;;;;;;;-6.90;66.13;101865.62;1760272;81;21072;-75
2022/12/05 01:08:37;;;;;;;8.65;4.20;;;;;;;-6.89;66.25;101861.34;1760698;81;21030;-75
2022/12/05 01:11:05;;;;;;;12.13;5.00;;;;;;;-6.86;66.22;101855.70;1761923;81;20974;-75
2022/12/05 01:13:32;;;;;;;8.85;4.42;;;;;;;-6.84;66.22;101847.50;1758591;81;21052;-75
2022/12/05 01:15:59;;;;;;;8.00;3.90;;;;;;;-6.87;66.28;101842.36;1762346;81;21096;-76
2022/12/05 01:18:26;;;;;;;14.58;5.33;;;;;;;-6.87;66.33;101850.12;1761364;81;21006;-75
2022/12/05 01:20:53;;;;;;;6.53;3.47;;;;;;;-6.90;66.41;101847.53;1761989;81;21088;-76
2022/12/05 01:23:19;;;;;;;9.13;4.37;;;;;;;-6.90;66.45;101834.61;1762355;81;21048;-76
2022/12/05 01:25:48;;;;;;;7.90;4.75;;;;;;;-6.87;66.42;101833.76;1762470;81;21072;-76
2022/12/05 01:28:15;;;;;;;7.12;3.22;;;;;;;-6.93;66.49;101821.28;1762215;81;21234;-78
2022/12/05 01:30:45;;;;;;;7.25;3.75;;;;;;;-6.94;66.59;101827.30;1758078;81;21284;-77
2022/12/05 01:33:12;;;;;;;10.00;4.03;;;;;;;-6.96;66.69;101825.59;1762319;81;21060;-75
2022/12/05 01:35:39;;;;;;;9.23;3.87;;;;;;;-6.98;66.79;101813.97;1758577;81;21065;-77
2022/12/05 01:38:06;;;;;;;14.83;4.55;;;;;;;-6.97;66.89;101807.09;1710011;83;21068;-75
2022/12/05 01:40:34;;;;;;;13.40;3.60;;;;;;;-6.96;66.87;101812.67;1739535;82;21126;-77
2022/12/05 01:43:02;;;;;;;10.40;3.70;;;;;;;-6.98;66.91;101810.53;1739045;82;21510;-75
2022/12/05 01:45:39;;;;;;;7.17;3.55;;;;;;;-6.98;67.01;101813.97;1711042;83;21005;-75
2022/12/05 01:48:11;;;;;;;8.30;3.40;;;;;;;-7.00;67.14;101815.70;1739762;81;21516;-70
2022/12/05 01:50:38;;;;;;;7.87;3.75;;;;;;;-7.03;67.16;101817.02;1739474;82;21021;-74
2022/12/05 01:53:04;;;;;;;9.45;3.58;;;;;;;-7.08;67.23;101807.56;1739417;82;21782;-75
2022/12/05 01:55:31;;;;;;;6.58;3.37;;;;;;;-7.12;67.38;101816.60;1721521;82;21052;-75
2022/12/05 01:57:58;;;;;;;8.18;4.15;;;;;;;-7.13;67.53;101804.97;1688895;83;21086;-75
2022/12/05 02:00:25;;;;;;;11.22;4.85;;;;;;;-7.13;67.61;101807.15;1740236;82;21038;-76
2022/12/05 02:02:59;;;;;;;12.75;3.85;;;;;;;-7.12;67.73;101805.42;1741307;82;21057;-75
2022/12/05 02:05:29;;;;;;;8.28;4.20;;;;;;;-7.12;67.86;101808.00;1740573;82;22042;-76
2022/12/05 02:08:08;;;;;;;10.50;3.92;;;;;;;-7.11;67.84;101809.70;1731905;82;21053;-74
2022/12/05 02:10:41;;;;;;;9.25;4.67;;;;;;;-7.08;67.83;101823.06;1719555;82;22110;-71
2022/12/05 02:13:31;;;;;;;;;;;;;;;-7.08;67.88;101820.48;1710928;81;21013;-73
2022/12/05 02:16:07;;;;;;;10.72;4.17;;;;;;;-7.07;67.83;101825.61;1724508;82;20175;-74
2022/12/05 02:18:48;;;;;;;14.53;4.78;;;;;;;-7.08;67.95;101825.65;1739079;82;21923;-72
2022/12/05 02:21:35;;;;;;;7.47;3.62;;;;;;;-7.11;67.97;101825.20;1724987;82;21595;-74
2022/12/05 02:24:26;;;;;;;9.08;3.92;;;;;;;-7.13;68.03;101831.69;1738603;82;21194;-72
2022/12/05 02:27:14;;;;;;;7.62;4.05;;;;;;;-7.14;68.13;101822.65;1725077;82;21044;-72
2022/12/05 02:30:07;;;;;;;11.08;4.85;;;;;;;-7.18;68.23;101822.23;1738144;82;21029;-73
2022/12/05 02:33:02;;;;;;;8.03;4.00;;;;;;;-7.17;68.26;101818.33;1736552;82;21160;-72
2022/12/05 02:35:40;;;;;;;7.72;4.08;;;;;;;-7.21;68.44;101819.64;1722566;82;21052;-73
2022/12/05 02:38:18;;;;;;;7.65;4.37;;;;;;;-7.22;68.64;101812.78;1740945;82;21045;-74
2022/12/05 02:41:25;;;;;;;12.03;4.75;;;;;;;-7.17;68.62;101819.63;1738583;82;21101;-71
2022/12/05 02:44:04;;;;;;;8.33;4.30;;;;;;;-7.19;68.60;101814.89;1735365;82;21103;-74
2022/12/05 02:46:32;;;;;;;6.33;3.65;;;;;;;-7.15;68.62;101827.38;1740000;82;21200;-72
2022/12/05 02:49:02;;;;;;;11.33;4.78;;;;;;;-7.17;68.74;101822.64;1740093;82;21576;-74
2022/12/05 02:51:32;;;;;;;9.78;4.78;;;;;;;-7.15;68.73;101828.66;1740103;82;21088;-74
2022/12/05 02:54:02;;;;;;;16.73;4.97;;;;;;;-7.17;68.75;101828.66;1736078;82;21036;-75
2022/12/05 02:56:29;;;;;;;22.02;5.10;;;;;;;-7.16;68.77;101825.67;1706569;82;21088;-74
2022/12/05 02:58:56;;;;;;;12.07;4.20;;;;;;;-7.15;68.75;101826.08;1686056;82;21193;-77
2022/12/05 03:01:25;;;;;;;11.73;5.85;;;;;;;-7.15;68.75;101820.91;1739960;82;21072;-75
2022/12/05 03:03:52;;;;;;;12.80;5.83;;;;;;;-7.19;68.86;101823.94;1738570;82;21030;-74
2022/12/05 03:06:26;;;;;;;12.90;5.37;;;;;;;-7.14;68.94;101822.20;1740242;82;21072;-74
2022/12/05 03:09:04;;;;;;;;;;;;;;;-7.12;68.89;101824.35;1742248;82;21049;-74
2022/12/05 03:11:36;;;;;;;8.90;4.25;;;;;;;-7.07;68.81;101819.16;1740171;82;21114;-73
2022/12/05 03:14:02;;;;;;;10.68;4.75;;;;;;;-7.09;68.79;101819.59;1739441;82;21062;-75
2022/12/05 03:16:39;;;;;;;8.63;5.12;;;;;;;-7.12;68.86;101820.48;1735221;82;21029;-74
2022/12/05 03:19:20;;;;;;;10.20;4.75;;;;;;;-7.11;68.86;101826.49;1719969;82;21030;-73
2022/12/05 03:21:56;;;;;;;10.53;4.45;;;;;;;-7.06;69.01;101823.92;1738699;82;21088;-73
2022/12/05 03:24:22;;;;;;;9.40;4.33;;;;;;;-7.01;68.82;101825.63;1739780;82;21224;-74
2022/12/05 03:27:16;;;;;;;12.37;4.15;;;;;;;-7.00;68.87;101827.77;1740366;82;21021;-75
2022/12/05 03:30:08;;;;;;;9.78;4.78;;;;;;;-7.03;68.82;101828.64;1741687;82;21042;-75
2022/12/05 03:33:07;;;;;;;7.72;3.75;;;;;;;-7.05;68.78;101823.92;1733734;82;21072;-80
2022/12/05 03:35:56;;;;;;;8.98;4.83;;;;;;;-7.03;68.97;101817.02;1691084;84;21568;-78
2022/12/05 03:38:33;;;;;;;8.55;3.70;;;;;;;-7.01;68.94;101807.95;1738228;82;21521;-76
2022/12/05 03:41:17;;;;;;;10.63;4.22;;;;;;;-7.01;68.86;101804.95;1739205;82;21001;-74
2022/12/05 03:43:54;;;;;;;8.33;4.05;;;;;;;-7.08;68.81;101808.41;1720599;82;21532;-77
2022/12/05 03:46:39;;;;;;;9.13;4.42;;;;;;;-7.09;68.90;101805.83;1728226;82;21021;-75
2022/12/05 03:49:17;;;;;;;9.20;3.95;;;;;;;-7.09;69.02;101814.43;1726947;82;21567;-75
2022/12/05 03:52:03;;;;;;;8.90;4.30;;;;;;;-7.14;69.13;101805.86;1736482;82;21237;-77
2022/12/05 03:54:44;;;;;;;10.40;4.35;;;;;;;-7.10;69.14;101807.56;1702135;83;21068;-77
2022/12/05 03:57:16;;;;;;;11.25;4.20;;;;;;;-7.18;69.16;101812.75;1737902;82;21100;-76
2022/12/05 03:59:50;;;;;;;11.50;4.53;;;;;;;-7.21;69.32;101816.63;1709611;83;21648;-74
2022/12/05 04:02:26;;;;;;;9.63;4.20;;;;;;;-7.23;69.38;101820.08;1739735;82;21517;-75
2022/12/05 04:05:06;;;;;;;8.15;4.30;;;;;;;-7.25;69.55;101814.06;1709615;83;21555;-76
2022/12/05 04:07:34;;;;;;;10.28;4.12;;;;;;;-7.23;69.75;101806.73;1738515;82;21041;-75
2022/12/05 04:10:06;;;;;;;10.43;4.80;;;;;;;-7.22;69.79;101814.92;1710833;82;21104;-73
2022/12/05 04:12:33;;;;;;;8.87;4.23;;;;;;;-7.24;69.79;101810.60;1738267;82;21128;-73
2022/12/05 04:15:05;;;;;;;8.18;3.95;;;;;;;-7.23;69.69;101808.46;1740934;82;21124;-74
2022/12/05 04:17:40;;;;;;;7.72;3.95;;;;;;;-7.25;69.82;101805.02;1741471;82;21814;-72
2022/12/05 04:22:59;;;;;;;9.65;4.55;;;;;;;-7.22;69.90;101807.61;1737226;82;21073;-73
2022/12/05 04:25:33;;;;;;;11.90;4.53;;;;;;;-7.22;70.01;101834.30;1723140;82;21053;-73
2022/12/05 04:28:40;;;;;;;15.45;4.47;;;;;;;-7.26;70.06;101810.63;1714926;82;21064;-76
2022/12/05 04:31:13;;;;;;;8.98;5.03;;;;;;;-7.30;70.11;101805.05;1737716;82;21524;-73
2022/12/05 04:33:49;;;;;;;9.60;3.77;;;;;;;-7.31;70.15;101799.00;1740410;81;21029;-73
2022/12/05 04:36:41;;;;;;;8.98;4.70;;;;;;;-7.33;70.28;101801.17;1708910;82;21076;-74
2022/12/05 04:39:22;;;;;;;8.65;4.00;;;;;;;-7.34;70.33;101800.73;1695358;82;20983;-72
2022/12/05 04:41:56;;;;;;;7.12;3.62;;;;;;;-7.33;70.51;101800.73;1727807;80;22077;-72
2022/12/05 04:44:27;;;;;;;10.40;3.90;;;;;;;-7.36;70.58;101777.52;1737776;80;21332;-74
2022/12/05 04:46:54;;;;;;;10.55;4.37;;;;;;;-7.39;70.67;101780.09;1729738;82;21642;-76
2022/12/05 04:49:23;;;;;;;10.13;3.62;;;;;;;-7.42;70.76;101775.36;1753467;81;21088;-75
2022/12/05 04:51:52;;;;;;;9.50;4.35;;;;;;;-7.44;70.95;101776.66;1745328;81;21017;-75
2022/12/05 04:54:47;;;;;;;7.28;4.05;;;;;;;-7.45;71.03;101780.11;1729423;82;21060;-75
2022/12/05 04:57:19;;;;;;;8.60;4.90;;;;;;;-7.47;71.21;101785.72;1708370;82;21623;-75
2022/12/05 04:59:47;;;;;;;10.65;4.58;;;;;;;-7.43;71.34;101786.58;1712883;82;21114;-73
2022/12/05 05:02:17;;;;;;;10.32;5.55;;;;;;;-7.39;71.25;101783.97;1695198;82;21031;-73
2022/12/05 05:04:49;;;;;;;11.38;5.85;;;;;;;-7.39;71.27;101782.67;1702356;83;21034;-71
2022/12/05 05:07:16;;;;;;;8.35;4.50;;;;;;;-7.40;71.37;101779.65;1718930;82;21046;-73
2022/12/05 05:09:43;;;;;;;9.28;5.60;;;;;;;-7.38;71.37;101771.50;1727028;82;21216;-74
2022/12/05 05:12:09;;;;;;;9.63;5.28;;;;;;;-7.34;71.40;101783.53;1682194;83;21015;-73
2022/12/05 05:16:03;;;;;;;11.03;5.50;;;;;;;-7.22;71.40;101777.91;1858866;76;22733;-73
2022/12/05 05:18:30;;;;;;;10.03;5.08;;;;;;;-7.23;71.40;101783.92;1809889;78;21108;-73
2022/12/05 05:20:57;;;;;;;12.10;5.00;;;;;;;-7.22;71.39;101778.76;1826423;78;21228;-72
2022/12/05 05:23:23;;;;;;;10.05;5.50;;;;;;;-7.20;71.44;101775.73;1800125;77;21079;-72
2022/12/05 05:25:52;;;;;;;10.78;5.33;;;;;;;-7.13;71.41;101785.19;1818865;78;20965;-73
2022/12/05 05:28:19;;;;;;;13.98;5.55;;;;;;;-7.06;71.38;101792.91;1794274;77;21025;-72
2022/12/05 05:30:45;;;;;;;14.85;6.62;;;;;;;-7.03;71.26;101789.00;1826598;78;21006;-72
2022/12/05 05:33:12;;;;;;;14.55;6.05;;;;;;;-7.01;71.27;101780.41;1813547;77;21093;-75
2022/12/05 05:35:38;;;;;;;11.60;6.30;;;;;;;-7.01;71.30;101788.16;1812100;77;20996;-75
2022/12/05 05:38:06;;;;;;;12.88;7.33;;;;;;;-6.97;71.25;101795.03;1821214;78;21037;-76
2022/12/05 05:40:36;;;;;;;12.70;6.30;;;;;;;-6.96;71.40;101795.44;1820995;77;20985;-75
2022/12/05 05:43:03;;;;;;;13.15;6.12;;;;;;;-6.89;71.36;101801.45;1792268;78;20974;-74
2022/12/05 05:45:31;;;;;;;11.05;6.70;;;;;;;-6.83;71.33;101809.17;1824862;77;21227;-74
2022/12/05 05:47:57;;;;;;;13.58;7.00;;;;;;;-6.79;71.19;101804.41;1804023;77;21029;-74
2022/12/05 05:50:23;;;;;;;17.48;7.03;;;;;;;-6.76;71.07;101809.99;1812512;78;21012;-73
2022/12/05 05:52:50;;;;;;;16.05;7.30;;;;;;;-6.75;71.18;101806.55;1800157;78;21041;-74
2022/12/05 05:55:16;;;;;;;9.83;6.17;;;;;;;-6.73;71.07;101806.97;1786913;80;21044;-75
2022/12/05 05:57:47;;;;;;;14.33;6.37;;;;;;;-6.72;71.18;101817.75;1773026;80;21832;-75
2022/12/05 06:00:16;;;;;;;13.68;6.30;;;;;;;-6.69;71.12;101812.13;1772990;80;21061;-76
2022/12/05 06:02:42;;;;;;;11.12;6.45;;;;;;;-6.68;71.18;101812.13;1774831;80;22138;-74
2022/12/05 06:05:08;;;;;;;11.28;5.30;;;;;;;-6.67;71.21;101815.12;1768567;78;21226;-73
2022/12/05 06:07:35;;;;;;;10.40;5.80;;;;;;;-6.63;71.21;101811.66;1770535;79;21097;-73
2022/12/05 06:10:02;;;;;;;12.03;5.97;;;;;;;-6.61;71.13;101809.91;1768959;79;21102;-73
2022/12/05 06:12:29;;;;;;;11.83;5.55;;;;;;;-6.63;71.20;101803.90;1782302;80;20997;-72
2022/12/05 06:14:56;;;;;;;14.15;5.37;;;;;;;-6.61;71.33;101806.04;1760600;80;21505;-71
2022/12/05 06:17:22;;;;;;;8.25;5.33;;;;;;;-6.61;71.39;101801.31;1784640;79;20992;-70
2022/12/05 06:19:49;;;;;;;8.08;5.03;;;;;;;-6.57;71.33;101806.88;1766271;80;21037;-73
2022/12/05 06:22:15;;;;;;;12.20;5.55;;;;;;;-6.59;71.44;101808.62;1768758;79;21787;-72
2022/12/05 06:24:42;;;;;;;11.25;5.67;;;;;;;-6.56;71.43;101808.17;1763325;79;21024;-73
2022/12/05 06:27:08;;;;;;;11.45;5.30;;;;;;;-6.49;71.49;101805.55;1769211;79;21008;-73
2022/12/05 06:29:35;;;;;;;9.60;5.85;;;;;;;-6.43;71.41;101804.21;1784082;80;21024;-73
2022/12/05 06:32:01;;;;;;;10.75;5.72;;;;;;;-6.36;71.32;101797.70;1786577;79;21175;-75
2022/12/05 06:34:28;;;;;;;14.10;6.08;;;;;;;-6.32;71.22;101806.30;1779057;80;21096;-74
2022/12/05 06:36:58;;;;;;;12.05;5.90;;;;;;;-6.32;71.06;101801.12;1791755;80;21009;-73
2022/12/05 06:39:25;;;;;;;11.78;5.97;;;;;;;-6.34;71.08;101814.06;1759941;80;21097;-73
2022/12/05 06:41:52;;;;;;;8.80;5.67;;;;;;;-6.42;71.18;101802.92;1775930;78;21012;-72
2022/12/05 06:44:20;;;;;;;9.70;5.53;;;;;;;-6.45;71.29;101798.19;1778138;78;21001;-75
2022/12/05 06:46:47;;;;;;;10.60;5.62;;;;;;;-6.49;71.47;101799.94;1793691;80;22193;-75
2022/12/05 06:49:14;;;;;;;13.10;6.30;;;;;;;-6.48;71.64;101797.79;1780947;78;21053;-74
2022/12/05 06:51:40;;;;;;;9.28;5.85;;;;;;;-6.47;71.62;101794.34;1780905;80;21032;-73
2022/12/05 06:54:07;;;;;;;13.38;6.10;;;;;;;-6.47;71.70;101798.64;1795009;78;21128;-73
2022/12/05 06:56:33;;;;;;;13.78;6.70;;;;;;;-6.44;71.70;101788.28;1779721;80;21056;-76
2022/12/05 06:59:00;;;;;;;9.13;5.37;;;;;;;-6.41;71.74;101795.59;1775034;80;21079;-74
2022/12/05 07:01:42;;;;;;;10.38;5.92;;;;;;;-6.38;71.75;101801.17;1781521;80;21001;-74
2022/12/05 07:04:19;;;;;;;11.68;6.80;;;;;;;-6.37;71.73;101799.03;1781493;80;21002;-73
2022/12/05 07:06:47;;;;;;;13.00;6.70;;;;;;;-6.38;71.84;101796.84;1766202;78;21505;-74
2022/12/05 07:09:14;;;;;;;12.53;6.62;;;;;;;-6.31;71.75;101787.34;1768624;80;21051;-72
2022/12/05 07:11:40;;;;;;;19.10;7.20;;;;;;;-6.28;71.68;101791.18;1780778;79;21170;-72
2022/12/05 07:14:08;;;;;;;11.12;7.40;;;;;;;-6.26;71.53;101789.44;1763721;81;21019;-72
2022/12/05 07:16:35;;;;;;;10.10;6.22;;;;;;;-6.26;71.43;101786.85;1753680;79;21035;-73
2022/12/05 07:19:02;;;;;;;11.03;6.80;;;;;;;-6.30;71.61;101799.83;1753200;79;21073;-73
2022/12/05 07:21:29;;;;;;;11.75;7.78;;;;;;;-6.31;71.69;101786.05;1791272;80;21028;-73
2022/12/05 07:23:55;;;;;;;12.15;7.03;;;;;;;-6.29;71.76;101776.98;1760137;80;21545;-74
2022/12/05 07:26:23;;;;;;;12.10;7.90;;;;;;;-6.25;71.80;101778.68;1792698;80;20985;-73
2022/12/05 07:28:50;;;;;;;15.63;7.30;;;;;;;-6.15;71.83;101781.17;1765065;80;21085;-72
2022/12/05 07:31:21;;;;;;;12.58;6.90;;;;;;;-6.06;71.74;101791.05;1761186;81;21511;-73
2022/12/05 07:33:51;;;;;;;13.50;7.08;;;;;;;-6.01;71.26;101788.81;1755707;80;20992;-73
2022/12/05 07:36:21;;;;;;;11.08;5.75;;;;;;;-6.04;71.27;101780.25;1747298;82;21138;-73
2022/12/05 07:38:48;;;;;;;11.95;6.20;;;;;;;-6.04;71.35;101770.75;1761148;81;21044;-73
2022/12/05 07:41:24;;;;;;;13.78;6.62;;;;;;;-6.00;71.28;101765.97;1767245;80;21017;-73
2022/12/05 07:43:52;;;;;;;11.43;6.65;;;;;;;-5.99;71.31;101771.58;1761645;80;21531;-72
2022/12/05 07:46:18;;;;;;;16.17;8.60;;;;;;;-5.93;71.28;101770.61;1761533;81;21016;-74
2022/12/05 07:48:44;;;;;;;17.07;7.00;;;;;;;-5.90;71.29;101781.39;1761558;80;21215;-73
2022/12/05 07:51:12;;;;;;;15.70;8.50;;;;;;;-5.91;71.17;101777.95;1732530;81;21001;-72
2022/12/05 07:53:40;;;;;;;13.15;7.40;;;;;;;-5.94;71.23;101774.08;1752074;80;20990;-74
2022/12/05 07:56:07;;;;;;;13.10;7.87;;;;;;;-5.97;71.41;101771.12;1771020;80;21037;-73
2022/12/05 07:58:34;;;;;;;13.03;7.40;;;;;;;-5.96;71.48;101765.50;1743317;80;21047;-73
2022/12/05 08:01:16;;;;;;;12.68;7.30;;;;;;;-5.94;71.45;101775.38;1757422;81;21147;-72
2022/12/05 08:03:43;;;;;;;16.80;8.10;;;;;;;-5.94;71.49;101771.49;1758324;80;21035;-73
2022/12/05 08:06:14;;;;;;;15.32;8.80;;;;;;;-5.89;71.50;101782.67;1730507;81;21087;-75
2022/12/05 08:08:41;;;;;;;18.27;8.90;;;;;;;-5.81;71.53;101780.02;1733558;81;21056;-75
2022/12/05 08:11:11;;;;;;;15.50;9.05;;;;;;;-5.75;71.41;101769.60;1729383;83;21072;-73
2022/12/05 08:13:40;;;;;;;14.68;7.80;;;;;;;-5.67;71.33;101773.41;1735004;81;21036;-74
2022/12/05 08:16:12;;;;;;;15.45;8.28;;;;;;;-5.65;71.09;101775.55;1730791;81;21065;-74
2022/12/05 08:18:40;;;;;;;14.25;7.00;;;;;;;-5.64;71.00;101778.12;1733153;81;21062;-70
2022/12/05 08:21:16;;;;;;;17.10;7.80;;;;;;;-5.64;71.10;101772.06;1735670;81;21481;-73
2022/12/05 08:23:43;;;;;;;10.72;7.03;;;;;;;-5.60;70.88;101775.92;1729944;82;21026;-72
2022/12/05 08:26:13;;;;;;;14.35;8.38;;;;;;;-5.55;70.67;101782.34;1729789;83;21215;-73
2022/12/05 08:28:40;;;;;;;12.55;6.50;;;;;;;-5.57;70.71;101773.73;1742071;81;21045;-72
2022/12/05 08:31:13;;;;;;;15.38;8.23;;;;;;;-5.54;70.56;101770.67;1728672;81;21025;-72
2022/12/05 08:33:40;;;;;;;12.30;7.30;;;;;;;-5.56;70.48;101762.52;1722217;81;21048;-73
2022/12/05 08:36:09;;;;;;;13.68;7.65;;;;;;;-5.63;70.63;101767.33;1728775;82;21134;-72
2022/12/05 08:38:36;;;;;;;15.53;7.92;;;;;;;-5.60;70.72;101756.92;1724879;83;21100;-73
2022/12/05 08:41:04;;;;;;;15.90;8.58;;;;;;;-5.60;70.78;101764.69;1745984;81;21001;-73
2022/12/05 08:43:32;;;;;;;13.18;7.62;;;;;;;-5.56;70.82;101761.22;1719291;82;21060;-71
2022/12/05 08:45:58;;;;;;;15.40;8.75;;;;;;;-5.47;70.84;101761.55;1665898;84;21092;-74
2022/12/05 08:48:26;;;;;;;13.53;8.43;;;;;;;-5.43;70.90;101760.19;1703289;83;21066;-74
2022/12/05 08:50:53;;;;;;;16.05;8.53;;;;;;;-5.31;70.60;101754.04;1735823;81;21290;-72
2022/12/05 08:53:19;;;;;;;17.10;8.90;;;;;;;-5.29;70.55;101753.58;1729640;81;21991;-73
2022/12/05 08:55:45;;;;;;;15.28;8.28;;;;;;;-5.24;70.34;101751.77;1731146;81;21519;-73
2022/12/05 08:58:14;;;;;;;14.13;8.50;;;;;;;-5.17;70.29;101753.88;1729266;83;21085;-71
2022/12/05 09:00:40;;;;;;;15.03;8.80;;;;;;;-5.11;70.34;101742.58;1740667;81;21045;-72
2022/12/05 09:03:10;;;;;;;15.20;8.60;;;;;;;-5.02;70.33;101743.73;1734247;81;21229;-71
2022/12/05 09:05:36;;;;;;;17.90;9.23;;;;;;;-4.89;70.11;101736.66;1730386;81;21034;-70
2022/12/05 09:08:03;;;;;;;16.32;9.45;;;;;;;-4.84;70.09;101738.31;1729757;81;21529;-70
2022/12/05 09:10:32;;;;;;;14.68;8.55;;;;;;;-4.70;69.93;101728.19;1747719;81;21056;-70
2022/12/05 09:12:58;;;;;;;13.78;8.53;;;;;;;-4.60;69.89;101728.47;1733760;81;21046;-71
2022/12/05 09:15:25;;;;;;;14.47;8.23;;;;;;;-4.49;69.60;101723.98;1731397;81;21888;-71
2022/12/05 09:17:52;;;;;;;14.87;9.13;;;;;;;-4.38;69.17;101720.78;1723663;81;21013;-70
2022/12/05 09:20:18;;;;;;;13.88;8.53;;;;;;;-4.32;69.07;101722.42;1730232;81;21089;-71
2022/12/05 09:22:45;;;;;;;15.32;8.78;;;;;;;-4.30;68.90;101723.25;1736409;81;22051;-72
2022/12/05 09:25:12;;;;;;;12.13;7.85;;;;;;;-4.21;68.66;101727.00;1734575;81;21073;-71
2022/12/05 09:27:38;;;;;;;14.28;8.38;;;;;;;-4.22;68.04;101716.64;1740879;81;21965;-70
2022/12/05 09:30:08;;;;;;;16.97;9.13;;;;;;;-4.23;68.08;101706.70;1727035;81;21245;-69
2022/12/05 09:32:34;;;;;;;14.18;8.50;;;;;;;-4.21;68.20;101715.32;1713030;82;21516;-69
2022/12/05 09:35:01;;;;;;;14.55;8.90;;;;;;;-4.24;68.01;101706.27;1705555;82;21061;-67
2022/12/05 09:37:27;;;;;;;14.25;7.97;;;;;;;-4.21;68.00;101704.94;1705503;83;21012;-70
2022/12/05 09:39:55;;;;;;;13.20;8.55;;;;;;;-4.21;68.12;101702.77;1736601;81;21503;-69
2022/12/05 09:42:41;;;;;;;13.78;8.65;;;;;;;-4.21;68.03;101695.86;1733795;81;21012;-66
2022/12/05 09:45:28;;;;;;;15.65;9.13;;;;;;;-4.19;67.99;101697.98;1742809;81;21100;-67
2022/12/05 09:48:13;;;;;;;13.75;9.05;;;;;;;-4.20;68.04;101691.52;1703214;82;21031;-66
2022/12/05 09:50:47;;;;;;;15.10;9.03;;;;;;;-4.20;68.09;101691.52;1712751;82;21077;-68
2022/12/05 09:53:26;;;;;;;16.30;9.18;;;;;;;-4.23;68.01;101685.94;1735742;81;21235;-68
2022/12/05 09:56:07;;;;;;;14.13;8.88;;;;;;;-4.23;68.33;101685.06;1724899;81;21107;-68
2022/12/05 09:58:48;;;;;;;16.35;9.70;;;;;;;-4.19;68.35;101682.41;1729065;83;21014;-67
2022/12/05 10:01:44;;;;;;;15.90;9.60;;;;;;;-4.12;68.35;101689.63;1730432;81;21000;-67
2022/12/05 10:04:28;;;;;;;14.50;9.58;;;;;;;-4.04;68.24;101686.45;1725234;81;21045;-68
2022/12/05 10:07:13;;;;;;;;;;;;;;;-4.00;68.02;101690.73;1731961;81;21179;-67
2022/12/05 10:10:09;;;;;;;13.93;9.58;;;;;;;-4.00;67.98;101679.05;1728344;81;20221;-68
2022/12/05 10:12:59;;;;;;;16.20;10.65;;;;;;;-4.04;68.16;101668.73;1729016;81;21020;-67
2022/12/05 10:15:47;;;;;;;15.68;8.78;;;;;;;-4.04;68.28;101676.52;1727442;81;21096;-66
2022/12/05 10:18:37;;;;;;;17.87;10.20;;;;;;;-4.02;68.28;101677.34;1723952;81;21041;-66
2022/12/05 10:21:20;;;;;;;13.83;8.90;;;;;;;-3.98;68.11;101676.41;1730128;81;21852;-67
2022/12/05 10:24:07;;;;;;;15.72;8.40;;;;;;;-4.01;68.08;101669.53;1731955;81;21129;-66
2022/12/05 10:26:38;;;;;;;13.72;9.63;;;;;;;-4.03;68.15;101682.14;1715617;82;21050;-73
2022/12/05 10:29:30;;;;;;;14.87;9.45;;;;;;;-4.03;68.24;101676.95;1719822;81;21520;-70
2022/12/05 10:32:14;;;;;;;16.15;10.72;;;;;;;-3.98;68.46;101668.61;1720193;82;21055;-73
2022/12/05 10:34:42;;;;;;;16.25;9.53;;;;;;;-3.95;68.33;101673.77;1716061;82;21353;-73
2022/12/05 10:37:22;;;;;;;14.38;9.70;;;;;;;-3.96;68.38;101666.84;1721091;82;22815;-72
2022/12/05 10:39:49;;;;;;;14.90;9.35;;;;;;;-3.99;68.29;101665.17;1723754;83;21192;-71
2022/12/05 10:42:24;;;;;;;17.27;10.98;;;;;;;-3.98;68.35;101666.02;1706694;82;21571;-70
2022/12/05 10:44:56;;;;;;;15.23;10.45;;;;;;;-3.95;68.58;101669.87;1717299;83;21464;-71
2022/12/05 10:47:22;;;;;;;15.18;10.55;;;;;;;-3.88;68.63;101658.49;1722357;81;21108;-70
2022/12/05 10:49:49;;;;;;;15.85;10.30;;;;;;;-3.78;68.59;101653.53;1741187;81;20977;-73
2022/12/05 10:52:15;;;;;;;17.80;11.15;;;;;;;-3.76;68.42;101666.48;1734294;81;21032;-72
2022/12/05 10:54:46;;;;;;;16.80;10.95;;;;;;;-3.76;68.29;101662.14;1714245;81;21050;-70
2022/12/05 10:57:25;;;;;;;15.63;11.25;;;;;;;-3.73;68.18;101662.52;1684702;83;20976;-71
2022/12/05 10:59:53;;;;;;;15.20;10.20;;;;;;;-3.72;68.30;101655.16;1681018;84;21543;-70
2022/12/05 15:46:54;;;;;;;16.00;8.77;;;;;;;-6.36;76.92;101458.02;1764663;80;22634;-73
2022/12/05 15:49:26;;;;;;;15.83;7.97;;;;;;;-6.30;76.18;101458.39;1757836;81;21029;-75
2022/12/05 15:52:05;;;;;;;12.95;6.95;;;;;;;-6.16;75.65;101459.94;1742522;81;21104;-75
2022/12/05 15:54:33;;;;;;;13.72;7.97;;;;;;;-6.08;75.09;101468.02;1745943;81;21050;-73
2022/12/05 15:57:13;;;;;;;17.98;8.08;;;;;;;-6.02;74.69;101465.38;1755909;81;21021;-72
2022/12/05 15:59:47;;;;;;;18.30;7.62;;;;;;;-5.98;74.14;101455.39;1730287;81;21009;-73
2022/12/05 16:02:24;;;;;;;10.60;6.58;;;;;;;-5.94;74.03;101457.02;1747393;81;21046;-74
2022/12/05 16:04:53;;;;;;;15.53;6.75;;;;;;;-5.88;73.76;101446.58;1745471;81;21282;-73
2022/12/05 16:07:19;;;;;;;18.95;6.67;;;;;;;-5.83;73.48;101450.38;1735289;81;20935;-73
2022/12/05 16:09:46;;;;;;;18.40;8.53;;;;;;;-5.81;72.94;101444.33;1750710;80;21017;-73
2022/12/05 16:12:26;;;;;;;14.28;7.60;;;;;;;-5.78;72.65;101446.01;1753787;81;21481;-74
2022/12/05 16:14:59;;;;;;;11.85;5.92;;;;;;;-5.80;72.61;101442.59;1752466;81;21071;-73
2022/12/05 16:17:25;;;;;;;17.45;8.43;;;;;;;-5.78;72.25;101445.56;1752689;81;22132;-73
2022/12/05 16:19:52;;;;;;;15.98;7.30;;;;;;;-5.75;72.27;101446.83;1766028;80;21058;-72
2022/12/05 16:22:24;;;;;;;14.75;7.20;;;;;;;-5.75;72.20;101449.41;1754779;80;21493;-73
2022/12/05 16:24:59;;;;;;;13.62;6.90;;;;;;;-5.71;72.27;101448.09;1761592;80;21033;-74
2022/12/05 16:27:33;;;;;;;10.80;6.50;;;;;;;-5.64;72.26;101447.97;1758959;80;21005;-73
2022/12/05 16:30:20;;;;;;;9.95;6.28;;;;;;;-5.58;71.96;101452.20;1728857;81;21221;-73